sensor_id;sensor_type;location;lat;lon;timestamp;pressure;altitude;pressure_sealevel;temperature;humidity
29903;BME280;30288;50.514;9.678;2024-02-26T00:01:01;97109.69;;;0.82;100.00
29903;BME280;30288;50.514;9.678;2024-02-26T00:03:07;97103.16;;;0.78;100.00
29903;BME280;30288;50.514;9.678;2024-02-26T00:05:13;97105.63;;;0.78;100.00
29903;BME280;30288;50.514;9.678;2024-02-26T00:07:19;97099.88;;;0.76;100.00
29903;BME280;30288;50.514;9.678;2024-02-26T00:09:27;97099.88;;;0.76;100.00
29903;BME280;30288;50.514;9.678;2024-02-26T00:11:30;97104.81;;;0.76;100.00
29903;BME280;30288;50.514;9.678;2024-02-26T00:13:36;97104.06;;;0.71;100.00
29903;BME280;30288;50.514;9.678;2024-02-26T00:15:41;97102.41;;;0.73;100.00
29903;BME280;30288;50.514;9.678;2024-02-26T00:17:47;97102.41;;;0.72;100.00
29903;BME280;30288;50.514;9.678;2024-02-26T00:19:52;97104.88;;;0.73;100.00
29903;BME280;30288;50.514;9.678;2024-02-26T00:21:59;97100.81;;;0.69;100.00
29903;BME280;30288;50.514;9.678;2024-02-26T00:24:06;97109.22;;;0.61;100.00
29903;BME280;30288;50.514;9.678;2024-02-26T00:26:15;97105.75;;;0.71;100.00
29903;BME280;30288;50.514;9.678;2024-02-26T00:28:21;97104.81;;;0.76;100.00
29903;BME280;30288;50.514;9.678;2024-02-26T00:30:27;97105.56;;;0.83;100.00
29903;BME280;30288;50.514;9.678;2024-02-26T00:32:32;97095.50;;;0.91;100.00
29903;BME280;30288;50.514;9.678;2024-02-26T00:34:37;97093.00;;;0.94;100.00
29903;BME280;30288;50.514;9.678;2024-02-26T00:36:43;97092.75;;;1.09;100.00
29903;BME280;30288;50.514;9.678;2024-02-26T00:38:45;97085.34;;;1.07;100.00
29903;BME280;30288;50.514;9.678;2024-02-26T00:40:53;97090.94;;;1.17;100.00
29903;BME280;30288;50.514;9.678;2024-02-26T00:43:01;97081.88;;;1.14;100.00
29903;BME280;30288;50.514;9.678;2024-02-26T00:45:07;97075.34;;;1.10;100.00
29903;BME280;30288;50.514;9.678;2024-02-26T00:47:11;97074.59;;;1.07;100.00
29903;BME280;30288;50.514;9.678;2024-02-26T00:49:17;97078.81;;;1.03;100.00
29903;BME280;30288;50.514;9.678;2024-02-26T00:51:22;97082.84;;;1.09;100.00
29903;BME280;30288;50.514;9.678;2024-02-26T00:53:28;97076.19;;;1.11;100.00
29903;BME280;30288;50.514;9.678;2024-02-26T00:55:33;97071.28;;;1.08;100.00
29903;BME280;30288;50.514;9.678;2024-02-26T00:57:39;97066.25;;;1.11;100.00
29903;BME280;30288;50.514;9.678;2024-02-26T00:59:48;97069.41;;;1.19;100.00
29903;BME280;30288;50.514;9.678;2024-02-26T01:01:54;97071.13;;;1.17;100.00
29903;BME280;30288;50.514;9.678;2024-02-26T01:04:00;97064.50;;;1.17;100.00
29903;BME280;30288;50.514;9.678;2024-02-26T01:06:06;97064.53;;;1.16;100.00
29903;BME280;30288;50.514;9.678;2024-02-26T01:08:12;97068.56;;;1.20;100.00
29903;BME280;30288;50.514;9.678;2024-02-26T01:10:17;97068.53;;;1.23;100.00
29903;BME280;30288;50.514;9.678;2024-02-26T01:12:23;97071.19;;;1.14;100.00
29903;BME280;30288;50.514;9.678;2024-02-26T01:14:28;97067.09;;;1.10;100.00
29903;BME280;30288;50.514;9.678;2024-02-26T01:16:33;97063.88;;;1.06;100.00
29903;BME280;30288;50.514;9.678;2024-02-26T01:18:39;97063.75;;;1.12;100.00
29903;BME280;30288;50.514;9.678;2024-02-26T01:20:44;97067.09;;;1.10;100.00
29903;BME280;30288;50.514;9.678;2024-02-26T01:22:47;97059.72;;;1.07;100.00
29903;BME280;30288;50.514;9.678;2024-02-26T01:24:52;97066.41;;;1.02;100.00
29903;BME280;30288;50.514;9.678;2024-02-26T01:26:59;97055.69;;;1.01;100.00
29903;BME280;30288;50.514;9.678;2024-02-26T01:29:06;97056.66;;;0.93;100.00
29903;BME280;30288;50.514;9.678;2024-02-26T01:31:11;97062.44;;;0.95;100.00
29903;BME280;30288;50.514;9.678;2024-02-26T01:33:20;97053.38;;;0.91;100.00
29903;BME280;30288;50.514;9.678;2024-02-26T01:35:25;97052.47;;;0.96;100.00
29903;BME280;30288;50.514;9.678;2024-02-26T01:37:32;97048.44;;;0.91;100.00
29903;BME280;30288;50.514;9.678;2024-02-26T01:39:38;97051.81;;;0.86;100.00
29903;BME280;30288;50.514;9.678;2024-02-26T01:41:44;97048.50;;;0.87;100.00
29903;BME280;30288;50.514;9.678;2024-02-26T01:43:49;97055.16;;;0.85;100.00
29903;BME280;30288;50.514;9.678;2024-02-26T01:45:55;97051.94;;;0.80;100.00
29903;BME280;30288;50.514;9.678;2024-02-26T01:48:00;97056.88;;;0.80;100.00
29903;BME280;30288;50.514;9.678;2024-02-26T01:50:10;97061.88;;;0.77;100.00
29903;BME280;30288;50.514;9.678;2024-02-26T01:52:15;97057.63;;;0.85;100.00
29903;BME280;30288;50.514;9.678;2024-02-26T01:54:21;97060.06;;;0.87;100.00
29903;BME280;30288;50.514;9.678;2024-02-26T01:56:27;97060.03;;;0.88;100.00
29903;BME280;30288;50.514;9.678;2024-02-26T01:58:43;97062.44;;;0.93;100.00
29903;BME280;30288;50.514;9.678;2024-02-26T02:00:49;97059.88;;;0.98;100.00
29903;BME280;30288;50.514;9.678;2024-02-26T02:02:54;97062.31;;;1.01;100.00
29903;BME280;30288;50.514;9.678;2024-02-26T02:04:58;97066.34;;;1.05;100.00
29903;BME280;30288;50.514;9.678;2024-02-26T02:07:06;97058.81;;;1.11;100.00
29903;BME280;30288;50.514;9.678;2024-02-26T02:09:12;97054.72;;;1.10;100.00
29903;BME280;30288;50.514;9.678;2024-02-26T02:11:17;97058.78;;;1.14;100.00
29903;BME280;30288;50.514;9.678;2024-02-26T02:13:23;97059.56;;;1.16;100.00
29903;BME280;30288;50.514;9.678;2024-02-26T02:15:28;97058.81;;;1.12;100.00
29903;BME280;30288;50.514;9.678;2024-02-26T02:17:40;97056.44;;;1.05;100.00
29903;BME280;30288;50.514;9.678;2024-02-26T02:19:45;97059.63;;;1.13;100.00
29903;BME280;30288;50.514;9.678;2024-02-26T02:21:53;97063.78;;;1.11;100.00
29903;BME280;30288;50.514;9.678;2024-02-26T02:23:59;97071.19;;;1.14;100.00
29903;BME280;30288;50.514;9.678;2024-02-26T02:26:01;97062.03;;;1.16;100.00
29903;BME280;30288;50.514;9.678;2024-02-26T02:28:08;97066.97;;;1.17;100.00
29903;BME280;30288;50.514;9.678;2024-02-26T02:30:14;97066.16;;;1.17;100.00
29903;BME280;30288;50.514;9.678;2024-02-26T02:32:22;97060.31;;;1.19;100.00
29903;BME280;30288;50.514;9.678;2024-02-26T02:34:27;97066.97;;;1.17;100.00
29903;BME280;30288;50.514;9.678;2024-02-26T02:36:33;97065.19;;;1.24;100.00
29903;BME280;30288;50.514;9.678;2024-02-26T02:38:49;97065.16;;;1.27;100.00
29903;BME280;30288;50.514;9.678;2024-02-26T02:40:55;97057.00;;;1.20;100.00
29903;BME280;30288;50.514;9.678;2024-02-26T02:43:01;97066.81;;;1.26;100.00
29903;BME280;30288;50.514;9.678;2024-02-26T02:45:08;97069.47;;;1.16;100.00
29903;BME280;30288;50.514;9.678;2024-02-26T02:47:11;97067.72;;;1.22;100.00
29903;BME280;30288;50.514;9.678;2024-02-26T02:49:17;97072.59;;;1.27;100.00
29903;BME280;30288;50.514;9.678;2024-02-26T02:51:22;97071.69;;;1.33;100.00
29903;BME280;30288;50.514;9.678;2024-02-26T02:53:28;97069.09;;;1.37;100.00
29903;BME280;30288;50.514;9.678;2024-02-26T02:55:36;97050.03;;;1.39;100.00
29903;BME280;30288;50.514;9.678;2024-02-26T02:57:41;97053.25;;;1.44;100.00
29903;BME280;30288;50.514;9.678;2024-02-26T02:59:47;97068.94;;;1.46;100.00
29903;BME280;30288;50.514;9.678;2024-02-26T03:01:52;97071.25;;;1.54;100.00
29903;BME280;30288;50.514;9.678;2024-02-26T03:03:58;97078.63;;;1.58;100.00
29903;BME280;30288;50.514;9.678;2024-02-26T03:06:04;97072.06;;;1.54;100.00
29903;BME280;30288;50.514;9.678;2024-02-26T03:08:10;97051.47;;;1.51;100.00
29903;BME280;30288;50.514;9.678;2024-02-26T03:10:13;97067.03;;;1.57;100.00
29903;BME280;30288;50.514;9.678;2024-02-26T03:12:22;97071.22;;;1.57;100.00
29903;BME280;30288;50.514;9.678;2024-02-26T03:14:28;97060.47;;;1.56;100.00
29903;BME280;30288;50.514;9.678;2024-02-26T03:16:33;97067.03;;;1.57;100.00
29903;BME280;30288;50.514;9.678;2024-02-26T03:18:40;97073.72;;;1.55;100.00
29903;BME280;30288;50.514;9.678;2024-02-26T03:20:46;97069.63;;;1.53;100.00
29903;BME280;30288;50.514;9.678;2024-02-26T03:22:49;97065.53;;;1.50;100.00
29903;BME280;30288;50.514;9.678;2024-02-26T03:24:55;97067.22;;;1.48;100.00
29903;BME280;30288;50.514;9.678;2024-02-26T03:26:58;97073.75;;;1.52;100.00
29903;BME280;30288;50.514;9.678;2024-02-26T03:29:06;97061.34;;;1.52;100.00
29903;BME280;30288;50.514;9.678;2024-02-26T03:31:12;97066.31;;;1.52;100.00
29903;BME280;30288;50.514;9.678;2024-02-26T03:33:17;97065.53;;;1.50;100.00
29903;BME280;30288;50.514;9.678;2024-02-26T03:35:23;97048.94;;;1.52;100.00
29903;BME280;30288;50.514;9.678;2024-02-26T03:37:31;97048.13;;;1.53;100.00
29903;BME280;30288;50.514;9.678;2024-02-26T03:39:37;97048.16;;;1.52;100.00
29903;BME280;30288;50.514;9.678;2024-02-26T03:41:43;97049.75;;;1.54;100.00
29903;BME280;30288;50.514;9.678;2024-02-26T03:43:48;97048.19;;;1.50;100.00
29903;BME280;30288;50.514;9.678;2024-02-26T03:45:56;97062.25;;;1.48;100.00
29903;BME280;30288;50.514;9.678;2024-02-26T03:48:01;97063.06;;;1.50;100.00
29903;BME280;30288;50.514;9.678;2024-02-26T03:50:08;97051.44;;;1.52;100.00
29903;BME280;30288;50.514;9.678;2024-02-26T03:52:18;97037.34;;;1.54;100.00
29903;BME280;30288;50.514;9.678;2024-02-26T03:54:23;97045.69;;;1.50;100.00
29903;BME280;30288;50.514;9.678;2024-02-26T03:56:28;97057.25;;;1.51;100.00
29903;BME280;30288;50.514;9.678;2024-02-26T03:58:35;97060.50;;;1.53;100.00
29903;BME280;30288;50.514;9.678;2024-02-26T04:00:42;97048.09;;;1.55;100.00
29903;BME280;30288;50.514;9.678;2024-02-26T04:02:53;97048.94;;;1.52;100.00
29903;BME280;30288;50.514;9.678;2024-02-26T04:04:58;97050.59;;;1.53;100.00
29903;BME280;30288;50.514;9.678;2024-02-26T04:07:04;97060.47;;;1.56;100.00
29903;BME280;30288;50.514;9.678;2024-02-26T04:09:10;97058.75;;;1.58;100.00
29903;BME280;30288;50.514;9.678;2024-02-26T04:11:15;97048.84;;;1.58;100.00
29903;BME280;30288;50.514;9.678;2024-02-26T04:13:22;97052.94;;;1.61;100.00
29903;BME280;30288;50.514;9.678;2024-02-26T04:15:28;97050.56;;;1.56;100.00
29903;BME280;30288;50.514;9.678;2024-02-26T04:17:33;97048.94;;;1.52;100.00
29903;BME280;30288;50.514;9.678;2024-02-26T04:19:42;97058.88;;;1.52;100.00
29903;BME280;30288;50.514;9.678;2024-02-26T04:21:47;97048.94;;;1.52;100.00
29903;BME280;30288;50.514;9.678;2024-02-26T04:23:53;97047.38;;;1.48;100.00
29903;BME280;30288;50.514;9.678;2024-02-26T04:25:59;97060.69;;;1.44;100.00
29903;BME280;30288;50.514;9.678;2024-02-26T04:28:05;97060.66;;;1.46;100.00
29903;BME280;30288;50.514;9.678;2024-02-26T04:30:11;97060.69;;;1.44;100.00
29903;BME280;30288;50.514;9.678;2024-02-26T04:32:16;97059.75;;;1.50;100.00
29903;BME280;30288;50.514;9.678;2024-02-26T04:34:22;97048.94;;;1.52;100.00
29903;BME280;30288;50.514;9.678;2024-02-26T04:36:30;97049.03;;;1.48;100.00
29903;BME280;30288;50.514;9.678;2024-02-26T04:38:36;97057.38;;;1.45;100.00
29903;BME280;30288;50.514;9.678;2024-02-26T04:40:41;97060.59;;;1.49;100.00
29903;BME280;30288;50.514;9.678;2024-02-26T04:42:47;97046.56;;;1.48;100.00
29903;BME280;30288;50.514;9.678;2024-02-26T04:44:50;97043.22;;;1.50;100.00
29903;BME280;30288;50.514;9.678;2024-02-26T04:46:56;97050.78;;;1.44;100.00
29903;BME280;30288;50.514;9.678;2024-02-26T04:49:04;97037.63;;;1.39;100.00
29903;BME280;30288;50.514;9.678;2024-02-26T04:51:09;97040.13;;;1.39;100.00
29903;BME280;30288;50.514;9.678;2024-02-26T04:53:17;97035.84;;;1.47;100.00
29903;BME280;30288;50.514;9.678;2024-02-26T04:55:23;97034.13;;;1.49;100.00
29903;BME280;30288;50.514;9.678;2024-02-26T04:57:29;97037.38;;;1.53;100.00
29903;BME280;30288;50.514;9.678;2024-02-26T04:59:35;97034.03;;;1.55;100.00
29903;BME280;30288;50.514;9.678;2024-02-26T05:01:39;97045.53;;;1.59;100.00
29903;BME280;30288;50.514;9.678;2024-02-26T05:03:44;97023.19;;;1.59;100.00
29903;BME280;30288;50.514;9.678;2024-02-26T05:05:50;97029.78;;;1.60;100.00
29903;BME280;30288;50.514;9.678;2024-02-26T05:07:58;97028.13;;;1.61;100.00
29903;BME280;30288;50.514;9.678;2024-02-26T05:10:08;97024.13;;;1.54;100.00
29903;BME280;30288;50.514;9.678;2024-02-26T05:12:14;97033.19;;;1.56;100.00
29903;BME280;30288;50.514;9.678;2024-02-26T05:14:20;97035.53;;;1.62;100.00
29903;BME280;30288;50.514;9.678;2024-02-26T05:16:25;97031.38;;;1.64;100.00
29903;BME280;30288;50.514;9.678;2024-02-26T05:18:32;97040.31;;;1.71;100.00
29903;BME280;30288;50.514;9.678;2024-02-26T05:20:38;97036.94;;;1.75;100.00
29903;BME280;30288;50.514;9.678;2024-02-26T05:22:44;97041.00;;;1.78;100.00
29903;BME280;30288;50.514;9.678;2024-02-26T05:24:49;97055.19;;;1.71;100.00
29903;BME280;30288;50.514;9.678;2024-02-26T05:26:59;97086.78;;;1.63;100.00
29903;BME280;30288;50.514;9.678;2024-02-26T05:29:04;97083.47;;;1.63;100.00
29903;BME280;30288;50.514;9.678;2024-02-26T05:31:07;97087.59;;;1.65;100.00
29903;BME280;30288;50.514;9.678;2024-02-26T05:33:13;97097.41;;;1.70;100.00
29903;BME280;30288;50.514;9.678;2024-02-26T05:35:21;97091.47;;;1.79;100.00
29903;BME280;30288;50.514;9.678;2024-02-26T05:37:26;97074.66;;;1.91;100.00
29903;BME280;30288;50.514;9.678;2024-02-26T05:39:32;97077.84;;;1.98;100.00
29903;BME280;30288;50.514;9.678;2024-02-26T05:41:37;97081.84;;;2.03;100.00
29903;BME280;30288;50.514;9.678;2024-02-26T05:43:43;97075.81;;;2.15;100.00
29903;BME280;30288;50.514;9.678;2024-02-26T05:45:48;97073.47;;;2.09;100.00
29903;BME280;30288;50.514;9.678;2024-02-26T05:47:53;97067.72;;;2.07;100.00
29903;BME280;30288;50.514;9.678;2024-02-26T05:49:59;97062.66;;;2.10;100.00
29903;BME280;30288;50.514;9.678;2024-02-26T05:52:03;97057.66;;;2.13;100.00
29903;BME280;30288;50.514;9.678;2024-02-26T05:54:09;97066.66;;;2.17;100.00
29903;BME280;30288;50.514;9.678;2024-02-26T05:56:14;97066.66;;;2.18;100.00
29903;BME280;30288;50.514;9.678;2024-02-26T05:58:21;97058.22;;;2.24;100.00
29903;BME280;30288;50.514;9.678;2024-02-26T06:00:29;97065.63;;;2.27;100.00
29903;BME280;30288;50.514;9.678;2024-02-26T06:02:34;97063.16;;;2.26;100.00
29903;BME280;30288;50.514;9.678;2024-02-26T06:04:40;97062.47;;;2.19;100.00
29903;BME280;30288;50.514;9.678;2024-02-26T06:06:43;97072.41;;;2.19;100.00
29903;BME280;30288;50.514;9.678;2024-02-26T06:08:50;97078.25;;;2.16;100.00
29903;BME280;30288;50.514;9.678;2024-02-26T06:10:55;97079.91;;;2.17;100.00
29903;BME280;30288;50.514;9.678;2024-02-26T06:13:00;97083.22;;;2.16;100.00
29903;BME280;30288;50.514;9.678;2024-02-26T06:15:06;97074.75;;;2.25;100.00
29903;BME280;30288;50.514;9.678;2024-02-26T06:17:15;97072.16;;;2.31;100.00
29903;BME280;30288;50.514;9.678;2024-02-26T06:19:20;97072.16;;;2.31;100.00
29903;BME280;30288;50.514;9.678;2024-02-26T06:21:26;97083.63;;;2.37;100.00
29903;BME280;30288;50.514;9.678;2024-02-26T06:23:31;97079.38;;;2.42;100.00
29903;BME280;30288;50.514;9.678;2024-02-26T06:25:34;97091.69;;;2.46;100.00
29903;BME280;30288;50.514;9.678;2024-02-26T06:27:41;97099.34;;;2.37;100.00
29903;BME280;30288;50.514;9.678;2024-02-26T06:29:48;97110.16;;;2.33;100.00
29903;BME280;30288;50.514;9.678;2024-02-26T06:31:51;97096.78;;;2.40;100.00
29903;BME280;30288;50.514;9.678;2024-02-26T06:33:59;97114.88;;;2.45;100.00
29903;BME280;30288;50.514;9.678;2024-02-26T06:36:06;97118.22;;;2.44;100.00
29903;BME280;30288;50.514;9.678;2024-02-26T06:38:12;97123.19;;;2.44;100.00
29903;BME280;30288;50.514;9.678;2024-02-26T06:40:16;97127.38;;;2.42;100.00
29903;BME280;30288;50.514;9.678;2024-02-26T06:42:21;97130.66;;;2.43;100.00
29903;BME280;30288;50.514;9.678;2024-02-26T06:44:28;97137.03;;;2.56;100.00
29903;BME280;30288;50.514;9.678;2024-02-26T06:46:35;97140.69;;;2.77;100.00
29903;BME280;30288;50.514;9.678;2024-02-26T06:48:41;97130.59;;;2.83;100.00
29903;BME280;30288;50.514;9.678;2024-02-26T06:50:49;97129.19;;;2.73;100.00
29903;BME280;30288;50.514;9.678;2024-02-26T06:52:55;97134.88;;;2.76;100.00
29903;BME280;30288;50.514;9.678;2024-02-26T06:55:00;97139.81;;;2.79;100.00
29903;BME280;30288;50.514;9.678;2024-02-26T06:57:07;97149.69;;;2.81;100.00
29903;BME280;30288;50.514;9.678;2024-02-26T06:59:12;97163.72;;;2.85;100.00
29903;BME280;30288;50.514;9.678;2024-02-26T07:01:21;97163.63;;;2.88;100.00
29903;BME280;30288;50.514;9.678;2024-02-26T07:03:26;97163.72;;;2.85;100.00
29903;BME280;30288;50.514;9.678;2024-02-26T07:05:32;97170.25;;;2.89;100.00
29903;BME280;30288;50.514;9.678;2024-02-26T07:07:42;97168.47;;;2.94;100.00
29903;BME280;30288;50.514;9.678;2024-02-26T07:09:47;97171.72;;;2.96;100.00
29903;BME280;30288;50.514;9.678;2024-02-26T07:11:52;97174.69;;;3.12;100.00
29903;BME280;30288;50.514;9.678;2024-02-26T07:14:02;97176.13;;;3.20;100.00
29903;BME280;30288;50.514;9.678;2024-02-26T07:16:07;97166.09;;;3.23;100.00
29903;BME280;30288;50.514;9.678;2024-02-26T07:18:14;97177.53;;;3.32;100.00
29903;BME280;30288;50.514;9.678;2024-02-26T07:20:21;97178.00;;;3.46;100.00
29903;BME280;30288;50.514;9.678;2024-02-26T07:22:27;97183.38;;;3.63;100.00
29903;BME280;30288;50.514;9.678;2024-02-26T07:24:35;97177.31;;;3.73;100.00
29903;BME280;30288;50.514;9.678;2024-02-26T07:26:42;97181.22;;;3.82;100.00
29903;BME280;30288;50.514;9.678;2024-02-26T07:28:53;97187.69;;;3.89;100.00
29903;BME280;30288;50.514;9.678;2024-02-26T07:31:02;97179.28;;;3.93;100.00
29903;BME280;30288;50.514;9.678;2024-02-26T07:33:11;97181.78;;;4.22;100.00
29903;BME280;30288;50.514;9.678;2024-02-26T07:35:19;97172.41;;;4.30;100.00
29903;BME280;30288;50.514;9.678;2024-02-26T07:37:24;97173.50;;;4.22;100.00
29903;BME280;30288;50.514;9.678;2024-02-26T07:39:29;97175.19;;;4.21;100.00
29903;BME280;30288;50.514;9.678;2024-02-26T07:41:37;97180.78;;;4.28;100.00
29903;BME280;30288;50.514;9.678;2024-02-26T07:43:43;97176.34;;;4.37;100.00
29903;BME280;30288;50.514;9.678;2024-02-26T07:45:49;97176.19;;;4.44;100.00
29903;BME280;30288;50.514;9.678;2024-02-26T07:47:55;97181.28;;;4.40;100.00
29903;BME280;30288;50.514;9.678;2024-02-26T07:50:01;97176.28;;;4.40;100.00
29903;BME280;30288;50.514;9.678;2024-02-26T07:52:04;97186.09;;;4.47;100.00
29903;BME280;30288;50.514;9.678;2024-02-26T07:54:10;97184.03;;;4.61;100.00
29903;BME280;30288;50.514;9.678;2024-02-26T07:56:15;97185.63;;;4.62;100.00
29903;BME280;30288;50.514;9.678;2024-02-26T07:58:25;97185.72;;;4.59;100.00
29903;BME280;30288;50.514;9.678;2024-02-26T08:00:31;97190.28;;;4.74;100.00
29903;BME280;30288;50.514;9.678;2024-02-26T08:02:37;97186.94;;;4.75;100.00
29903;BME280;30288;50.514;9.678;2024-02-26T08:04:40;97193.53;;;4.76;100.00
29903;BME280;30288;50.514;9.678;2024-02-26T08:06:45;97191.72;;;4.81;100.00
29903;BME280;30288;50.514;9.678;2024-02-26T08:08:52;97195.78;;;5.11;100.00
29903;BME280;30288;50.514;9.678;2024-02-26T08:10:57;97195.38;;;5.23;100.00
29903;BME280;30288;50.514;9.678;2024-02-26T08:13:03;97192.44;;;5.12;100.00
29903;BME280;30288;50.514;9.678;2024-02-26T08:15:11;97194.78;;;5.17;100.00
29903;BME280;30288;50.514;9.678;2024-02-26T08:17:16;97208.59;;;5.27;100.00
29903;BME280;30288;50.514;9.678;2024-02-26T08:19:22;97208.47;;;5.32;100.00
29903;BME280;30288;50.514;9.678;2024-02-26T08:21:27;97203.66;;;5.25;100.00
29903;BME280;30288;50.514;9.678;2024-02-26T08:23:30;97203.53;;;5.28;100.00
29903;BME280;30288;50.514;9.678;2024-02-26T08:25:36;97213.09;;;5.42;100.00
29903;BME280;30288;50.514;9.678;2024-02-26T08:27:42;97206.56;;;5.64;100.00
29903;BME280;30288;50.514;9.678;2024-02-26T08:29:45;97208.03;;;5.70;100.00
29903;BME280;30288;50.514;9.678;2024-02-26T08:31:53;97214.19;;;5.60;100.00
29903;BME280;30288;50.514;9.678;2024-02-26T08:33:59;97211.22;;;5.49;100.00
29903;BME280;30288;50.514;9.678;2024-02-26T08:36:05;97208.38;;;5.59;100.00
29903;BME280;30288;50.514;9.678;2024-02-26T08:38:10;97199.41;;;5.54;100.00
29903;BME280;30288;50.514;9.678;2024-02-26T08:40:15;97208.16;;;5.41;100.00
29903;BME280;30288;50.514;9.678;2024-02-26T08:42:22;97201.34;;;5.46;100.00
29903;BME280;30288;50.514;9.678;2024-02-26T08:44:27;97206.13;;;5.52;100.00
29903;BME280;30288;50.514;9.678;2024-02-26T08:46:32;97209.22;;;5.60;100.00
29903;BME280;30288;50.514;9.678;2024-02-26T08:48:42;97212.69;;;5.56;100.00
29903;BME280;30288;50.514;9.678;2024-02-26T08:50:48;97198.31;;;5.61;100.00
29903;BME280;30288;50.514;9.678;2024-02-26T08:52:54;97204.00;;;5.66;100.00
29903;BME280;30288;50.514;9.678;2024-02-26T08:54:59;97201.44;;;5.67;100.00
29903;BME280;30288;50.514;9.678;2024-02-26T08:57:05;97204.09;;;5.63;100.00
29903;BME280;30288;50.514;9.678;2024-02-26T08:59:11;97210.28;;;5.78;100.00
29903;BME280;30288;50.514;9.678;2024-02-26T09:01:21;97205.31;;;5.76;100.00
29903;BME280;30288;50.514;9.678;2024-02-26T09:03:29;97206.66;;;5.86;100.00
29903;BME280;30288;50.514;9.678;2024-02-26T09:05:37;97208.19;;;5.90;100.00
29903;BME280;30288;50.514;9.678;2024-02-26T09:07:44;97203.78;;;5.98;100.00
29903;BME280;30288;50.514;9.678;2024-02-26T09:09:49;97201.31;;;5.97;100.00
29903;BME280;30288;50.514;9.678;2024-02-26T09:11:53;97199.66;;;6.21;100.00
29903;BME280;30288;50.514;9.678;2024-02-26T09:13:59;97197.91;;;6.69;100.00
29903;BME280;30288;50.514;9.678;2024-02-26T09:16:06;97201.91;;;6.73;100.00
29903;BME280;30288;50.514;9.678;2024-02-26T09:18:13;97201.78;;;6.76;100.00
29903;BME280;30288;50.514;9.678;2024-02-26T09:20:18;97196.09;;;6.94;100.00
29903;BME280;30288;50.514;9.678;2024-02-26T09:22:28;97204.59;;;6.90;100.00
29903;BME280;30288;50.514;9.678;2024-02-26T09:24:34;97207.84;;;7.14;100.00
29903;BME280;30288;50.514;9.678;2024-02-26T09:26:40;97207.66;;;7.19;100.00
29903;BME280;30288;50.514;9.678;2024-02-26T09:28:45;97209.56;;;7.34;100.00
29903;BME280;30288;50.514;9.678;2024-02-26T09:30:51;97215.63;;;7.50;100.00
29903;BME280;30288;50.514;9.678;2024-02-26T09:32:57;97210.09;;;7.62;100.00
29903;BME280;30288;50.514;9.678;2024-02-26T09:35:00;97210.34;;;7.56;100.00
29903;BME280;30288;50.514;9.678;2024-02-26T09:37:05;97214.47;;;7.15;100.00
29903;BME280;30288;50.514;9.678;2024-02-26T09:39:25;97212.59;;;6.98;100.00
29903;BME280;30288;50.514;9.678;2024-02-26T09:41:31;97215.94;;;6.99;100.00
29903;BME280;30288;50.514;9.678;2024-02-26T09:43:36;97216.59;;;7.46;100.00
29903;BME280;30288;50.514;9.678;2024-02-26T09:45:44;97230.38;;;7.56;100.00
29903;BME280;30288;50.514;9.678;2024-02-26T09:47:50;97233.78;;;7.55;100.00
29903;BME280;30288;50.514;9.678;2024-02-26T09:49:56;97241.91;;;7.80;100.00
29903;BME280;30288;50.514;9.678;2024-02-26T09:51:59;97240.03;;;8.06;100.00
29903;BME280;30288;50.514;9.678;2024-02-26T09:54:09;97238.66;;;7.99;100.00
29903;BME280;30288;50.514;9.678;2024-02-26T09:56:18;97242.31;;;7.91;100.00
29903;BME280;30288;50.514;9.678;2024-02-26T09:58:24;97241.53;;;8.10;100.00
29903;BME280;30288;50.514;9.678;2024-02-26T10:00:32;97243.81;;;7.96;100.00
29903;BME280;30288;50.514;9.678;2024-02-26T10:02:43;97241.28;;;7.96;100.00
29903;BME280;30288;50.514;9.678;2024-02-26T10:04:47;97251.06;;;8.02;100.00
29903;BME280;30288;50.514;9.678;2024-02-26T10:06:54;97250.06;;;8.26;100.00
29903;BME280;30288;50.514;9.678;2024-02-26T10:09:03;97251.31;;;8.16;100.00
29903;BME280;30288;50.514;9.678;2024-02-26T10:11:10;97254.16;;;8.27;100.00
29903;BME280;30288;50.514;9.678;2024-02-26T10:13:19;97248.53;;;8.42;100.00
29903;BME280;30288;50.514;9.678;2024-02-26T10:15:26;97247.63;;;8.63;100.00
29903;BME280;30288;50.514;9.678;2024-02-26T10:17:32;97244.34;;;8.99;100.00
29903;BME280;30288;50.514;9.678;2024-02-26T10:19:39;97242.31;;;9.07;100.00
29903;BME280;30288;50.514;9.678;2024-02-26T10:21:44;97246.00;;;9.53;100.00
29903;BME280;30288;50.514;9.678;2024-02-26T10:23:50;97247.19;;;9.27;100.00
29903;BME280;30288;50.514;9.678;2024-02-26T10:25:56;97246.56;;;9.05;100.00
29903;BME280;30288;50.514;9.678;2024-02-26T10:28:02;97256.94;;;9.16;100.00
29903;BME280;30288;50.514;9.678;2024-02-26T10:30:19;97256.25;;;9.12;100.00
29903;BME280;30288;50.514;9.678;2024-02-26T10:32:28;97261.22;;;9.50;100.00
29903;BME280;30288;50.514;9.678;2024-02-26T10:34:35;97259.09;;;9.77;100.00
29903;BME280;30288;50.514;9.678;2024-02-26T10:36:46;97255.22;;;9.52;100.00
29903;BME280;30288;50.514;9.678;2024-02-26T10:38:58;97253.09;;;9.45;100.00
29903;BME280;30288;50.514;9.678;2024-02-26T10:41:06;97260.41;;;9.49;100.00
29903;BME280;30288;50.514;9.678;2024-02-26T10:43:13;97264.31;;;9.02;100.00
29903;BME280;30288;50.514;9.678;2024-02-26T10:45:23;97256.47;;;8.70;100.00
29903;BME280;30288;50.514;9.678;2024-02-26T10:47:29;97260.38;;;8.77;100.00
29903;BME280;30288;50.514;9.678;2024-02-26T10:49:36;97275.38;;;8.98;100.00
29903;BME280;30288;50.514;9.678;2024-02-26T10:51:44;97258.13;;;9.45;100.00
29903;BME280;30288;50.514;9.678;2024-02-26T10:53:51;97264.84;;;9.44;100.00
29903;BME280;30288;50.514;9.678;2024-02-26T10:56:05;97270.31;;;9.52;100.00
29903;BME280;30288;50.514;9.678;2024-02-26T10:58:11;97269.75;;;9.64;100.00
29903;BME280;30288;50.514;9.678;2024-02-26T11:00:18;97280.03;;;9.41;100.00
29903;BME280;30288;50.514;9.678;2024-02-26T11:02:27;97274.56;;;9.69;100.00
29903;BME280;30288;50.514;9.678;2024-02-26T11:04:33;97278.44;;;9.57;100.00
29903;BME280;30288;50.514;9.678;2024-02-26T11:06:43;97281.94;;;9.36;100.00
29903;BME280;30288;50.514;9.678;2024-02-26T11:08:51;97283.94;;;9.30;100.00